Time;durP1;ratioP1;P1;durP2;ratioP2;P2;SDS_P1;SDS_P2;PMS_P1;PMS_P2;Temp;Humidity;BMP_temperature;BMP_pressure;BME280_temperature;BME280_humidity;BME280_pressure;Samples;Min_cycle;Max_cycle;Signal;HPM_P1;HPM_P2
2023/02/15 00:02:01;;;;;;;31.83;16.20;;;1.90;99.90;;;;;;5056267;28;20461;-65
2023/02/15 00:04:45;;;;;;;26.33;14.73;;;1.90;99.90;;;;;;5070453;28;20041;-65
2023/02/15 00:07:15;;;;;;;29.25;15.55;;;1.90;99.90;;;;;;5057576;28;20044;-64
2023/02/15 00:09:44;;;;;;;30.35;16.58;;;1.90;99.90;;;;;;5070947;28;20098;-63
2023/02/15 00:12:11;;;;;;;30.35;15.68;;;1.90;99.90;;;;;;5059349;28;20075;-64
2023/02/15 00:14:39;;;;;;;29.92;16.40;;;1.80;99.90;;;;;;5070447;28;20508;-64
2023/02/15 00:17:06;;;;;;;29.83;15.00;;;1.70;99.90;;;;;;5069723;28;20119;-63
2023/02/15 00:19:33;;;;;;;30.80;16.33;;;1.70;99.90;;;;;;5062683;28;20522;-64
2023/02/15 00:22:01;;;;;;;28.98;14.70;;;1.80;99.90;;;;;;5069320;28;20056;-66
2023/02/15 00:24:28;;;;;;;28.88;15.45;;;1.80;99.90;;;;;;5069709;28;20053;-65
2023/02/15 00:26:55;;;;;;;27.27;14.73;;;1.70;99.90;;;;;;5069059;28;20469;-64
2023/02/15 00:29:23;;;;;;;27.35;13.88;;;1.70;99.90;;;;;;5070751;28;20094;-64
2023/02/15 00:31:50;;;;;;;29.30;15.23;;;1.70;99.90;;;;;;5052818;28;20037;-64
2023/02/15 00:34:21;;;;;;;27.75;14.80;;;1.70;99.90;;;;;;5063669;28;20514;-65
2023/02/15 00:36:49;;;;;;;28.67;15.67;;;1.70;99.90;;;;;;5070646;28;20041;-63
2023/02/15 00:39:18;;;;;;;28.42;15.10;;;1.70;99.90;;;;;;5061315;28;20045;-64
2023/02/15 00:41:46;;;;;;;28.02;14.90;;;1.70;99.90;;;;;;5086169;28;20122;-64
2023/02/15 00:44:13;;;;;;;27.02;14.13;;;1.70;99.90;;;;;;5070181;28;20060;-65
2023/02/15 00:46:41;;;;;;;29.27;15.00;;;1.80;99.90;;;;;;5070748;28;20033;-64
2023/02/15 00:49:09;;;;;;;27.40;14.00;;;1.80;99.90;;;;;;5070140;28;20071;-64
2023/02/15 00:51:37;;;;;;;26.10;14.55;;;1.70;99.90;;;;;;5054095;28;20132;-65
2023/02/15 00:54:05;;;;;;;26.48;14.45;;;1.60;99.90;;;;;;5048865;28;20073;-65
2023/02/15 00:56:32;;;;;;;24.50;13.73;;;1.60;99.90;;;;;;5028682;28;20206;-64
2023/02/15 00:58:59;;;;;;;26.52;13.93;;;1.60;99.90;;;;;;5037719;28;20120;-65
2023/02/15 01:01:27;;;;;;;26.15;14.05;;;1.50;99.90;;;;;;5053499;28;20479;-64
2023/02/15 01:03:54;;;;;;;26.75;14.02;;;1.50;99.90;;;;;;5052399;28;20044;-64
2023/02/15 01:06:21;;;;;;;24.00;12.80;;;1.50;99.90;;;;;;5068866;28;20116;-64
2023/02/15 01:08:49;;;;;;;25.50;13.80;;;1.50;99.90;;;;;;5050397;28;20041;-66
2023/02/15 01:11:21;;;;;;;26.58;14.02;;;1.40;99.90;;;;;;5068196;28;20067;-64
2023/02/15 01:13:52;;;;;;;26.60;13.00;;;1.40;99.90;;;;;;5050687;28;20499;-65
2023/02/15 01:16:20;;;;;;;24.77;13.90;;;1.40;99.90;;;;;;5050189;28;20057;-64
2023/02/15 01:18:48;;;;;;;25.63;13.20;;;1.40;99.90;;;;;;5044821;28;20045;-65
2023/02/15 01:21:18;;;;;;;24.42;12.90;;;1.40;99.90;;;;;;5049913;28;20535;-65
2023/02/15 01:23:46;;;;;;;26.08;14.10;;;1.30;99.90;;;;;;5045545;28;20041;-66
2023/02/15 01:26:14;;;;;;;25.90;13.55;;;1.30;99.90;;;;;;5042985;28;20045;-66
2023/02/15 01:28:43;;;;;;;26.90;13.48;;;1.30;99.90;;;;;;5049494;28;20053;-64
2023/02/15 01:31:13;;;;;;;27.45;14.23;;;1.30;99.90;;;;;;5034698;28;20048;-64
2023/02/15 01:33:41;;;;;;;30.20;15.02;;;1.20;99.90;;;;;;5034984;28;20053;-64
2023/02/15 01:36:09;;;;;;;26.45;13.02;;;1.20;99.90;;;;;;5067685;28;20052;-64
2023/02/15 01:38:39;;;;;;;26.20;14.07;;;1.10;99.90;;;;;;5041584;28;20057;-65
2023/02/15 01:41:26;;;;;;;25.45;13.75;;;1.10;99.90;;;;;;5032324;28;20068;-64
2023/02/15 01:43:59;;;;;;;25.55;13.45;;;1.10;99.90;;;;;;5042011;28;20067;-64
2023/02/15 01:46:50;;;;;;;30.65;15.02;;;1.10;99.90;;;;;;5067867;28;20411;-64
2023/02/15 01:49:23;;;;;;;30.08;13.88;;;1.20;99.90;;;;;;5067883;28;20049;-65
2023/02/15 01:51:52;;;;;;;29.10;15.18;;;1.20;99.90;;;;;;5064195;28;20044;-63
2023/02/15 01:54:28;;;;;;;28.40;14.45;;;1.20;99.90;;;;;;5039313;28;20499;-65
2023/02/15 01:57:02;;;;;;;29.90;14.55;;;1.20;99.90;;;;;;5065903;28;20052;-63
2023/02/15 01:59:32;;;;;;;28.27;14.40;;;1.10;99.90;;;;;;5046998;28;20038;-65
2023/02/15 02:02:00;;;;;;;29.35;14.65;;;1.10;99.90;;;;;;5031232;28;20564;-63
2023/02/15 02:04:45;;;;;;;27.42;14.05;;;1.10;99.90;;;;;;5030927;28;20541;-64
2023/02/15 02:07:15;;;;;;;29.85;14.10;;;1.10;99.90;;;;;;5050335;28;20478;-64
2023/02/15 02:09:44;;;;;;;26.40;14.20;;;1.10;99.90;;;;;;5047194;28;20076;-64
2023/02/15 02:12:12;;;;;;;29.02;15.00;;;1.10;99.90;;;;;;5012500;28;20041;-64
2023/02/15 02:14:40;;;;;;;28.15;14.98;;;1.10;99.90;;;;;;5031483;28;20140;-64
2023/02/15 02:17:16;;;;;;;27.98;14.80;;;1.10;99.90;;;;;;5049036;28;20503;-65
2023/02/15 02:20:15;;;;;;;28.75;14.55;;;1.10;99.90;;;;;;5051701;28;20048;-65
2023/02/15 02:23:00;;;;;;;;;;;1.10;99.90;;;;;;5036931;28;20094;-63
2023/02/15 02:25:56;;;;;;;32.83;15.88;;;1.10;99.90;;;;;;5050805;28;20375;-65
2023/02/15 02:28:51;;;;;;;27.95;13.90;;;1.20;99.90;;;;;;5030831;28;20048;-63
2023/02/15 02:31:49;;;;;;;27.58;14.07;;;1.20;99.90;;;;;;5031397;28;20033;-64
2023/02/15 02:34:16;;;;;;;28.40;13.82;;;1.30;99.90;;;;;;5058873;28;20037;-64
2023/02/15 02:36:52;;;;;;;27.92;14.55;;;1.30;99.90;;;;;;5050632;28;20530;-65
2023/02/15 02:39:31;;;;;;;29.00;14.55;;;1.30;99.90;;;;;;5030471;28;20525;-64
2023/02/15 02:42:29;;;;;;;30.40;15.23;;;1.20;99.90;;;;;;5033402;28;20049;-64
2023/02/15 02:45:04;;;;;;;30.60;15.05;;;1.20;99.90;;;;;;5041827;28;20049;-65
2023/02/15 02:47:44;;;;;;;29.88;14.05;;;1.20;99.90;;;;;;5030122;28;20047;-64
2023/02/15 02:50:18;;;;;;;30.38;14.65;;;1.20;99.90;;;;;;5048664;28;20043;-64
2023/02/15 02:52:47;;;;;;;29.40;15.25;;;1.20;99.90;;;;;;5050133;28;20049;-65
2023/02/15 02:55:30;;;;;;;30.50;14.75;;;1.20;99.90;;;;;;5033911;28;20510;-64
2023/02/15 02:58:04;;;;;;;32.30;15.40;;;1.20;99.90;;;;;;5047936;28;20136;-63
2023/02/15 03:00:39;;;;;;;30.05;14.88;;;1.20;99.90;;;;;;5046635;28;20091;-64
2023/02/15 03:03:12;;;;;;;31.20;15.82;;;1.30;99.90;;;;;;5034912;28;20057;-64
2023/02/15 03:05:44;;;;;;;29.25;14.77;;;1.20;99.90;;;;;;5046799;28;20044;-64
2023/02/15 03:08:21;;;;;;;32.00;15.68;;;1.10;99.90;;;;;;5050126;28;20049;-64
2023/02/15 03:10:53;;;;;;;28.10;14.52;;;1.20;99.90;;;;;;5044478;28;20034;-66
2023/02/15 03:13:21;;;;;;;29.38;14.40;;;1.20;99.90;;;;;;5031470;28;20125;-64
2023/02/15 03:18:43;;;;;;;28.80;13.85;;;1.10;99.90;;;;;;5046142;28;20040;-64
2023/02/15 03:21:21;;;;;;;27.10;13.73;;;1.10;99.90;;;;;;5048635;28;20063;-64
2023/02/15 03:24:20;;;;;;;28.10;14.18;;;1.10;99.90;;;;;;5029679;28;20139;-64
2023/02/15 03:26:51;;;;;;;27.30;13.55;;;1.00;99.90;;;;;;5028070;28;20041;-63
2023/02/15 03:29:21;;;;;;;28.88;14.10;;;1.00;99.90;;;;;;5028396;28;20048;-65
2023/02/15 03:31:56;;;;;;;27.95;14.07;;;0.90;99.90;;;;;;5036222;28;20072;-65
2023/02/15 03:34:24;;;;;;;28.60;14.88;;;0.90;99.90;;;;;;5047002;28;20048;-66
2023/02/15 03:37:24;;;;;;;29.33;13.73;;;0.90;99.90;;;;;;5050889;28;20041;-65
2023/02/15 03:41:08;;;;;;;28.65;14.45;;;0.70;99.90;;;;;;5043886;28;20071;-64
2023/02/15 03:42:48;;;;;;;28.23;13.88;;;0.70;99.90;;;;;;5031436;28;20514;-63
2023/02/15 03:45:21;;;;;;;31.98;15.88;;;0.60;99.90;;;;;;5036002;28;20045;-63
2023/02/15 03:47:51;;;;;;;28.63;14.75;;;0.70;99.90;;;;;;5043631;28;20045;-64
2023/02/15 03:53:16;;;;;;;28.80;14.00;;;0.60;99.90;;;;;;5029105;28;20064;-65
2023/02/15 03:55:52;;;;;;;27.42;13.43;;;0.60;99.90;;;;;;5029712;28;20548;-65
2023/02/15 04:04:21;;;;;;;29.13;13.60;;;0.50;99.90;;;;;;5035221;28;20038;-65
2023/02/15 04:06:51;;;;;;;26.00;12.52;;;0.50;99.90;;;;;;5044598;28;20128;-66
2023/02/15 04:12:04;;;;;;;27.73;13.27;;;0.60;99.90;;;;;;5049637;28;20431;-66
2023/02/15 04:17:17;;;;;;;22.30;12.02;;;0.60;99.90;;;;;;5029625;28;20204;-65
2023/02/15 04:25:16;;;;;;;24.20;12.02;;;0.50;99.90;;;;;;5030406;28;20037;-65
2023/02/15 04:27:54;;;;;;;20.85;11.15;;;0.60;99.90;;;;;;5044648;28;20045;-65
2023/02/15 04:30:24;;;;;;;23.58;12.48;;;0.60;99.90;;;;;;5031490;28;20064;-65
2023/02/15 04:32:51;;;;;;;21.65;11.43;;;0.60;99.90;;;;;;5049865;28;20531;-65
2023/02/15 04:35:18;;;;;;;22.50;12.60;;;0.60;99.90;;;;;;5041414;28;20500;-65
2023/02/15 04:37:46;;;;;;;22.20;12.32;;;0.60;99.90;;;;;;5033598;28;20045;-65
2023/02/15 04:40:14;;;;;;;20.70;11.40;;;0.60;99.90;;;;;;5047674;28;20045;-64
2023/02/15 04:42:48;;;;;;;20.00;10.50;;;0.60;99.90;;;;;;5033426;28;20111;-64
2023/02/15 04:45:16;;;;;;;14.65;8.98;;;0.50;99.90;;;;;;5035019;28;20092;-64
2023/02/15 04:47:44;;;;;;;20.95;11.35;;;0.40;99.90;;;;;;5033718;28;20426;-64
2023/02/15 04:50:12;;;;;;;24.48;12.50;;;0.40;99.90;;;;;;5033836;28;20045;-64
2023/02/15 04:52:39;;;;;;;19.30;11.23;;;0.40;99.90;;;;;;5048116;28;20499;-64
2023/02/15 04:55:07;;;;;;;22.25;11.73;;;0.30;99.90;;;;;;5034062;28;20084;-65
2023/02/15 04:57:34;;;;;;;20.40;11.10;;;0.30;99.90;;;;;;5048030;28;20079;-64
2023/02/15 05:00:02;;;;;;;21.13;11.13;;;0.30;99.90;;;;;;5049795;28;20041;-65
2023/02/15 05:02:30;;;;;;;21.70;11.77;;;0.30;99.90;;;;;;5037243;28;20128;-65
2023/02/15 05:04:57;;;;;;;23.75;12.40;;;0.30;99.90;;;;;;5032266;28;20423;-65
2023/02/15 05:07:24;;;;;;;20.63;11.63;;;0.40;99.90;;;;;;5045732;28;20045;-64
2023/02/15 05:09:52;;;;;;;22.73;11.88;;;0.40;99.90;;;;;;5052132;28;20037;-64
2023/02/15 05:12:19;;;;;;;21.90;12.10;;;0.40;99.90;;;;;;5061962;28;20175;-64
2023/02/15 05:14:46;;;;;;;22.88;12.23;;;0.40;99.90;;;;;;5031786;28;20052;-64
2023/02/15 05:17:13;;;;;;;23.35;12.93;;;0.40;99.90;;;;;;5032515;28;20051;-64
2023/02/15 05:19:40;;;;;;;22.17;12.50;;;0.40;99.90;;;;;;5039970;28;20043;-65
2023/02/15 05:22:08;;;;;;;25.00;13.40;;;0.40;99.90;;;;;;5049210;28;20104;-64
2023/02/15 05:30:11;;;;;;;24.60;13.75;;;0.30;99.90;;;;;;5034317;28;20044;-64
2023/02/15 05:32:39;;;;;;;26.92;13.25;;;0.20;99.90;;;;;;5048259;28;20087;-64
2023/02/15 05:35:07;;;;;;;26.02;13.82;;;0.20;99.90;;;;;;5039641;28;20107;-63
2023/02/15 05:37:34;;;;;;;27.85;14.15;;;0.20;99.90;;;;;;5037335;28;20056;-64
2023/02/15 05:40:02;;;;;;;26.92;14.18;;;0.20;99.90;;;;;;5048819;28;20033;-64
2023/02/15 05:42:29;;;;;;;26.95;14.25;;;0.10;99.90;;;;;;5035759;28;20042;-65
2023/02/15 05:44:56;;;;;;;29.35;15.13;;;0.20;99.90;;;;;;5040598;28;20056;-65
2023/02/15 05:47:24;;;;;;;27.80;14.88;;;0.10;99.90;;;;;;5048225;28;20385;-64
2023/02/15 05:49:51;;;;;;;31.27;16.40;;;0.10;99.90;;;;;;5051266;28;20048;-64
2023/02/15 05:52:18;;;;;;;30.15;15.07;;;0.20;99.90;;;;;;5047603;28;20041;-63
2023/02/15 05:54:45;;;;;;;27.85;15.30;;;0.20;99.90;;;;;;5031390;28;20068;-65
2023/02/15 05:57:13;;;;;;;29.63;15.88;;;0.20;99.90;;;;;;5031980;28;20426;-64
2023/02/15 05:59:40;;;;;;;30.30;15.63;;;0.20;99.90;;;;;;5045714;28;20033;-64
2023/02/15 06:02:07;;;;;;;30.45;17.30;;;0.30;99.90;;;;;;5054538;28;20048;-64
2023/02/15 06:04:34;;;;;;;32.53;16.42;;;0.30;99.90;;;;;;5071623;28;20041;-64
2023/02/15 06:07:02;;;;;;;27.73;14.98;;;0.30;99.90;;;;;;5063734;28;20114;-64
2023/02/15 06:09:29;;;;;;;29.52;14.68;;;0.30;99.90;;;;;;5054454;28;20121;-64
2023/02/15 06:11:56;;;;;;;31.23;14.32;;;0.30;99.90;;;;;;5072663;28;20398;-64
2023/02/15 06:14:24;;;;;;;28.73;14.50;;;0.20;99.90;;;;;;5060244;28;20067;-63
2023/02/15 06:16:51;;;;;;;29.90;15.48;;;0.10;99.90;;;;;;5080170;28;20037;-64
2023/02/15 06:19:18;;;;;;;32.90;16.40;;;0.10;99.90;;;;;;5069679;28;20037;-64
2023/02/15 06:21:46;;;;;;;30.80;16.63;;;0.10;99.90;;;;;;5072595;28;20140;-64
2023/02/15 06:24:13;;;;;;;30.00;14.85;;;0.10;99.90;;;;;;5058886;28;20060;-64
2023/02/15 06:26:40;;;;;;;27.73;15.07;;;0.20;99.90;;;;;;5072585;28;20388;-64
2023/02/15 06:29:08;;;;;;;30.45;15.30;;;0.20;99.90;;;;;;5068824;28;20036;-64
2023/02/15 06:31:35;;;;;;;29.40;15.70;;;0.30;99.90;;;;;;5063941;28;20193;-64
2023/02/15 06:34:02;;;;;;;30.95;15.55;;;0.20;99.90;;;;;;5072232;28;20119;-65
2023/02/15 06:36:31;;;;;;;28.55;15.52;;;0.20;99.90;;;;;;5070610;28;20354;-65
2023/02/15 06:38:58;;;;;;;31.67;16.02;;;0.30;99.90;;;;;;5068578;28;20044;-64
2023/02/15 06:41:26;;;;;;;30.40;15.80;;;0.30;99.90;;;;;;5050165;28;20419;-64
2023/02/15 06:43:53;;;;;;;27.35;15.63;;;0.30;99.90;;;;;;5054849;28;20036;-64
2023/02/15 06:46:20;;;;;;;28.67;14.93;;;0.40;99.90;;;;;;5053745;28;20056;-64
2023/02/15 06:48:48;;;;;;;29.58;15.45;;;0.40;99.90;;;;;;5051611;28;20037;-64
2023/02/15 06:51:15;;;;;;;32.53;16.52;;;0.40;99.90;;;;;;5050366;28;20041;-64
2023/02/15 06:53:42;;;;;;;28.27;14.40;;;0.40;99.90;;;;;;5044737;28;20046;-65
2023/02/15 06:56:11;;;;;;;27.33;15.23;;;0.40;99.90;;;;;;5037586;28;20077;-64
2023/02/15 06:58:42;;;;;;;29.05;15.75;;;0.40;99.90;;;;;;5060238;28;20040;-66
2023/02/15 07:01:09;;;;;;;29.05;14.73;;;0.40;99.90;;;;;;5070694;28;20487;-68
2023/02/15 07:03:36;;;;;;;26.75;13.50;;;0.40;99.90;;;;;;5070025;28;20212;-66
2023/02/15 07:06:07;;;;;;;27.15;14.32;;;0.40;99.90;;;;;;5063506;28;20044;-64
2023/02/15 07:08:36;;;;;;;27.92;15.77;;;0.40;99.90;;;;;;5053766;28;20080;-65
2023/02/15 07:13:52;;;;;;;27.83;14.50;;;0.40;99.90;;;;;;5055429;28;20444;-65
2023/02/15 07:16:19;;;;;;;27.35;15.35;;;0.50;99.90;;;;;;5044979;28;20135;-66
2023/02/15 07:18:47;;;;;;;27.73;14.57;;;0.50;99.90;;;;;;5039703;28;20049;-66
2023/02/15 07:21:14;;;;;;;27.58;14.10;;;0.60;99.90;;;;;;5067891;28;20041;-66
2023/02/15 07:23:41;;;;;;;25.35;13.05;;;0.60;99.90;;;;;;5063497;28;20041;-65
2023/02/15 07:26:08;;;;;;;25.70;14.10;;;0.60;99.90;;;;;;5049097;28;20155;-66
2023/02/15 07:28:36;;;;;;;23.23;13.13;;;0.70;99.90;;;;;;5059546;28;20044;-63
2023/02/15 07:31:04;;;;;;;27.38;13.00;;;0.60;99.90;;;;;;5059581;28;20404;-64
2023/02/15 07:33:33;;;;;;;26.95;13.98;;;0.50;99.90;;;;;;5058228;28;20041;-65
2023/02/15 07:36:02;;;;;;;30.23;15.80;;;0.40;99.90;;;;;;5072203;28;20549;-63
2023/02/15 07:38:35;;;;;;;27.58;14.43;;;0.50;99.90;;;;;;5063236;28;20487;-64
2023/02/15 07:41:08;;;;;;;26.70;14.32;;;0.50;99.90;;;;;;5052575;28;20368;-65
2023/02/15 07:43:38;;;;;;;31.73;14.93;;;0.60;99.90;;;;;;5051148;28;20053;-66
2023/02/15 07:46:11;;;;;;;26.92;13.57;;;0.70;99.90;;;;;;5049864;28;20443;-65
2023/02/15 07:48:41;;;;;;;26.75;13.80;;;0.70;99.90;;;;;;5048437;28;20037;-65
2023/02/15 07:51:11;;;;;;;27.77;14.02;;;0.80;99.90;;;;;;5042709;28;20510;-65
2023/02/15 07:53:39;;;;;;;26.83;14.50;;;0.80;99.90;;;;;;5029177;28;20053;-65
2023/02/15 07:56:12;;;;;;;25.83;13.88;;;0.90;99.90;;;;;;5046710;28;20053;-64
2023/02/15 07:58:51;;;;;;;26.48;14.15;;;0.90;99.90;;;;;;5051612;28;20396;-64
2023/02/15 08:01:19;;;;;;;25.90;13.63;;;1.00;99.90;;;;;;5049669;28;20077;-64
2023/02/15 08:03:47;;;;;;;30.35;14.10;;;1.00;99.90;;;;;;5047555;28;20411;-64
2023/02/15 08:06:15;;;;;;;26.45;14.35;;;1.00;99.90;;;;;;5039856;28;20037;-63
2023/02/15 08:08:42;;;;;;;27.42;13.65;;;1.00;99.90;;;;;;5048297;28;20040;-64
2023/02/15 08:11:25;;;;;;;25.02;12.93;;;0.90;99.90;;;;;;5031534;28;20049;-66
2023/02/15 08:13:55;;;;;;;27.23;13.43;;;1.00;99.90;;;;;;5045196;28;20519;-65
2023/02/15 08:16:27;;;;;;;26.83;13.70;;;1.10;99.90;;;;;;5043995;28;20136;-65
2023/02/15 08:18:56;;;;;;;25.05;13.35;;;1.10;99.90;;;;;;5043533;28;20123;-63
2023/02/15 08:21:25;;;;;;;31.60;15.60;;;1.20;99.90;;;;;;5046508;28;20415;-64
2023/02/15 08:23:53;;;;;;;27.13;14.10;;;1.10;99.90;;;;;;5044626;28;20496;-64
2023/02/15 08:26:22;;;;;;;31.05;15.18;;;1.00;99.90;;;;;;5042124;28;20414;-64
2023/02/15 08:28:51;;;;;;;35.88;16.65;;;1.10;99.90;;;;;;5063246;28;20439;-65
2023/02/15 08:31:18;;;;;;;24.92;12.98;;;1.20;99.90;;;;;;5049814;28;20040;-65
2023/02/15 08:33:47;;;;;;;26.33;14.13;;;1.30;99.90;;;;;;5031376;28;20470;-65
2023/02/15 08:36:18;;;;;;;30.73;15.07;;;1.30;99.90;;;;;;5049547;28;20128;-65
2023/02/15 08:38:46;;;;;;;29.48;15.35;;;1.50;99.90;;;;;;5047341;28;20085;-65
2023/02/15 08:41:16;;;;;;;26.77;13.27;;;1.60;99.90;;;;;;5031602;28;20464;-66
2023/02/15 08:43:45;;;;;;;24.83;13.00;;;1.50;99.90;;;;;;5048394;28;20402;-65
2023/02/15 08:46:16;;;;;;;27.95;14.50;;;1.40;99.90;;;;;;5047195;28;20518;-64
2023/02/15 08:48:44;;;;;;;28.60;14.80;;;1.50;99.90;;;;;;5049771;28;20386;-65
2023/02/15 08:51:14;;;;;;;26.42;13.63;;;1.60;99.90;;;;;;5050351;28;20041;-65
2023/02/15 08:53:45;;;;;;;25.92;13.35;;;1.70;99.90;;;;;;5047392;28;20048;-65
2023/02/15 08:56:12;;;;;;;33.80;15.82;;;1.80;99.90;;;;;;5049835;28;20500;-64
2023/02/15 08:58:40;;;;;;;28.23;14.63;;;1.90;99.90;;;;;;5049616;28;20357;-65
2023/02/15 09:01:11;;;;;;;30.92;15.00;;;2.00;99.90;;;;;;5041974;28;20052;-65
2023/02/15 09:03:39;;;;;;;29.73;14.32;;;2.10;99.90;;;;;;5010043;28;20512;-66
2023/02/15 09:06:07;;;;;;;29.15;15.18;;;2.20;99.90;;;;;;5035925;28;20037;-65
2023/02/15 09:08:35;;;;;;;33.72;16.20;;;2.10;99.90;;;;;;5047514;28;20472;-65
2023/02/15 09:11:06;;;;;;;29.27;14.93;;;2.30;99.90;;;;;;5028638;28;20121;-64
2023/02/15 09:13:34;;;;;;;31.92;16.15;;;2.30;99.90;;;;;;5033235;28;20464;-65
2023/02/15 09:16:06;;;;;;;25.17;14.15;;;2.40;99.90;;;;;;5047850;28;20547;-64
2023/02/15 09:18:37;;;;;;;27.65;13.80;;;2.60;99.90;;;;;;5049491;28;20055;-63
2023/02/15 09:21:16;;;;;;;23.48;12.70;;;2.60;99.90;;;;;;5049373;28;20041;-66
2023/02/15 09:23:45;;;;;;;27.00;13.07;;;2.80;99.90;;;;;;5052892;28;20048;-64
2023/02/15 09:26:21;;;;;;;23.20;12.82;;;2.90;99.90;;;;;;5034630;28;20033;-64
2023/02/15 09:28:52;;;;;;;23.15;12.35;;;2.70;99.90;;;;;;5032422;28;20037;-65
2023/02/15 09:31:22;;;;;;;21.70;12.27;;;2.40;99.90;;;;;;5033435;28;20543;-64
2023/02/15 09:33:50;;;;;;;25.17;13.05;;;2.50;99.90;;;;;;5033325;28;20530;-65
2023/02/15 09:36:19;;;;;;;25.30;12.60;;;2.70;99.90;;;;;;5033359;28;20488;-64
2023/02/15 09:38:54;;;;;;;24.30;13.07;;;2.90;99.90;;;;;;5047709;28;20049;-66
2023/02/15 09:41:51;;;;;;;27.10;12.77;;;3.10;99.90;;;;;;5051511;28;20136;-66
2023/02/15 09:44:42;;;;;;;28.35;14.32;;;3.10;99.90;;;;;;5051931;28;20041;-66
2023/02/15 09:47:38;;;;;;;26.42;12.52;;;3.10;99.90;;;;;;5048875;28;20065;-64
2023/02/15 09:50:24;;;;;;;23.88;12.38;;;3.10;99.90;;;;;;5029195;28;20044;-64
2023/02/15 09:53:29;;;;;;;24.55;12.65;;;3.30;99.90;;;;;;5032634;28;20559;-64
2023/02/15 09:55:56;;;;;;;23.75;11.75;;;3.30;99.90;;;;;;5049880;28;20462;-64
2023/02/15 09:58:52;;;;;;;22.13;11.73;;;3.10;99.90;;;;;;5051858;28;20128;-64
2023/02/15 10:01:22;;;;;;;26.85;13.23;;;3.30;99.90;;;;;;5043366;28;20049;-65
2023/02/15 10:03:53;;;;;;;20.98;11.65;;;3.20;99.90;;;;;;5033084;28;20071;-64
2023/02/15 10:06:44;;;;;;;23.75;11.88;;;3.40;99.90;;;;;;5036119;28;20038;-67
2023/02/15 10:09:14;;;;;;;24.38;12.38;;;3.50;99.90;;;;;;5044589;28;20042;-65
2023/02/15 10:12:07;;;;;;;24.63;11.60;;;3.70;99.90;;;;;;5030717;28;20507;-64
2023/02/15 10:15:08;;;;;;;20.90;12.00;;;3.90;99.90;;;;;;5030658;28;20053;-64
2023/02/15 10:17:55;;;;;;;22.00;12.48;;;4.00;99.90;;;;;;5047621;28;20531;-64
2023/02/15 10:20:28;;;;;;;24.27;12.77;;;4.00;99.90;;;;;;5032010;28;20384;-64
2023/02/15 10:23:34;;;;;;;23.95;13.30;;;4.00;99.90;;;;;;5032167;28;20473;-65
2023/02/15 10:26:13;;;;;;;26.13;12.93;;;4.00;99.90;;;;;;5050726;28;20456;-64
2023/02/15 10:28:56;;;;;;;25.60;13.25;;;4.10;99.90;;;;;;5040393;28;20152;-65
2023/02/15 10:31:25;;;;;;;;;;;4.40;99.90;;;;;;5046981;28;20048;-65
2023/02/15 10:34:08;;;;;;;23.15;11.50;;;4.60;99.90;;;;;;5030924;28;19925;-65
2023/02/15 10:36:55;;;;;;;26.75;12.90;;;4.90;99.90;;;;;;5049368;28;20128;-66
2023/02/15 10:39:43;;;;;;;22.52;12.43;;;5.20;99.90;;;;;;5049517;28;20503;-65
2023/02/15 10:42:34;;;;;;;24.90;11.85;;;5.60;99.90;;;;;;5048936;28;20044;-66
2023/02/15 10:45:10;;;;;;;21.77;11.88;;;5.60;99.90;;;;;;5031403;28;20137;-65
2023/02/15 10:48:04;;;;;;;22.13;12.32;;;5.60;99.90;;;;;;5036485;28;20048;-64
2023/02/15 10:50:34;;;;;;;23.77;13.60;;;5.60;99.90;;;;;;5031275;28;20578;-64
2023/02/15 10:53:20;;;;;;;21.80;12.07;;;5.80;99.90;;;;;;5030505;28;20064;-64
2023/02/15 10:56:03;;;;;;;22.20;12.32;;;6.00;99.90;;;;;;5029463;28;20041;-64
2023/02/15 10:58:44;;;;;;;22.65;11.85;;;6.20;99.90;;;;;;5032584;28;20562;-64
2023/02/15 11:01:22;;;;;;;21.88;12.20;;;6.30;99.90;;;;;;5050326;28;20033;-66
2023/02/15 11:04:14;;;;;;;21.92;12.07;;;6.70;99.90;;;;;;5043501;28;20127;-65
2023/02/15 11:06:51;;;;;;;18.73;12.55;;;6.80;99.90;;;;;;5044162;28;20091;-65
2023/02/15 11:09:22;;;;;;;21.58;12.32;;;7.00;99.90;;;;;;5032833;28;20392;-66
2023/02/15 11:11:55;;;;;;;23.47;12.77;;;7.00;99.90;;;;;;5041293;28;20052;-64
2023/02/15 11:14:50;;;;;;;20.73;11.57;;;7.20;99.90;;;;;;5030580;28;20041;-63
2023/02/15 11:17:39;;;;;;;18.23;11.18;;;7.50;99.90;;;;;;5012202;28;20045;-64
2023/02/15 11:20:19;;;;;;;20.02;12.15;;;7.80;99.90;;;;;;5030509;28;20041;-65
2023/02/15 11:22:53;;;;;;;18.70;11.23;;;8.00;99.90;;;;;;5040800;28;20044;-66
2023/02/15 11:25:25;;;;;;;18.00;11.20;;;8.00;99.90;;;;;;5050262;28;20037;-66
2023/02/15 11:27:55;;;;;;;18.35;11.90;;;7.80;99.90;;;;;;5031099;28;20046;-64
2023/02/15 11:30:27;;;;;;;17.10;11.38;;;7.80;99.90;;;;;;5045800;28;20503;-65
2023/02/15 11:33:01;;;;;;;19.88;12.25;;;7.30;99.90;;;;;;5044092;28;20128;-64
2023/02/15 11:35:41;;;;;;;19.60;11.85;;;7.10;99.90;;;;;;5051143;28;20049;-66
2023/02/15 11:38:26;;;;;;;19.35;11.57;;;7.20;99.90;;;;;;5051918;28;20484;-64
2023/02/15 11:40:58;;;;;;;18.60;11.35;;;7.50;99.90;;;;;;5039893;28;20583;-65
2023/02/15 11:43:42;;;;;;;;;;;7.70;99.90;;;;;;5036750;28;20492;-65
2023/02/15 11:46:12;;;;;;;19.55;11.77;;;8.20;99.90;;;;;;5062778;28;19927;-64
2023/02/15 11:48:40;;;;;;;19.42;12.40;;;7.70;99.90;;;;;;5039313;28;20037;-65
2023/02/15 11:51:20;;;;;;;21.60;12.75;;;7.90;99.90;;;;;;5046702;28;20128;-65
2023/02/15 11:53:50;;;;;;;;;;;7.80;99.90;;;;;;5051131;28;20087;-65
2023/02/15 11:56:23;;;;;;;21.17;12.80;;;7.70;99.90;;;;;;5048940;28;20019;-65
2023/02/15 11:59:07;;;;;;;19.95;13.73;;;8.30;99.90;;;;;;5049422;28;20534;-65
2023/02/15 12:01:45;;;;;;;21.67;14.13;;;8.70;99.90;;;;;;5028209;28;20040;-64
2023/02/15 12:04:41;;;;;;;20.42;13.43;;;9.10;99.90;;;;;;5029224;28;20048;-68
2023/02/15 12:07:25;;;;;;;18.30;12.25;;;9.90;99.90;;;;;;5045486;28;20037;-68
2023/02/15 12:10:17;;;;;;;19.50;12.70;;;10.70;99.90;;;;;;5033346;28;20180;-67
2023/02/15 12:12:44;;;;;;;18.08;12.82;;;11.30;99.90;;;;;;5038363;28;20080;-68
2023/02/15 12:15:13;;;;;;;20.65;14.48;;;11.10;99.90;;;;;;5030010;28;20137;-68
2023/02/15 12:17:50;;;;;;;20.15;14.05;;;11.00;99.90;;;;;;5044334;28;20073;-69
2023/02/15 12:20:17;;;;;;;20.10;14.55;;;11.10;99.90;;;;;;5030752;28;20361;-69
2023/02/15 12:23:02;;;;;;;20.70;14.05;;;10.20;99.90;;;;;;5029111;28;20049;-68
2023/02/15 12:25:36;;;;;;;22.33;14.32;;;10.70;99.90;;;;;;5044440;28;20465;-68
2023/02/15 12:28:21;;;;;;;19.40;13.43;;;11.30;99.90;;;;;;5029304;28;20038;-68
2023/02/15 12:30:48;;;;;;;22.67;14.55;;;11.70;99.90;;;;;;5030087;28;20476;-68
2023/02/15 12:33:23;;;;;;;22.58;14.93;;;12.60;99.90;;;;;;5030287;28;20053;-68
2023/02/15 12:36:12;;;;;;;24.45;15.30;;;13.00;99.90;;;;;;5038796;28;20053;-68
2023/02/15 12:38:39;;;;;;;18.15;13.57;;;13.70;99.90;;;;;;5030033;28;20052;-68
2023/02/15 12:41:24;;;;;;;19.60;14.23;;;14.00;99.90;;;;;;5032601;28;20041;-69
2023/02/15 12:44:05;;;;;;;18.63;13.77;;;14.30;99.90;;;;;;5050685;28;20445;-69
2023/02/15 12:46:33;;;;;;;20.33;14.10;;;15.50;99.90;;;;;;5048464;28;20052;-69
2023/02/15 12:49:18;;;;;;;16.53;12.47;;;15.80;99.90;;;;;;5059548;28;20488;-69
2023/02/15 12:51:51;;;;;;;14.88;12.02;;;17.30;99.90;;;;;;5033901;28;20131;-69
2023/02/15 12:54:38;;;;;;;16.65;13.48;;;17.70;99.90;;;;;;5029368;28;20137;-68
2023/02/15 12:57:28;;;;;;;21.25;11.90;;;17.90;98.90;;;;;;5032570;28;20485;-70
2023/02/15 13:00:05;;;;;;;16.35;13.43;;;18.20;98.40;;;;;;5049106;28;20048;-70
2023/02/15 13:02:43;;;;;;;17.58;13.93;;;18.20;96.10;;;;;;5051430;28;20392;-69
2023/02/15 13:05:18;;;;;;;18.70;14.10;;;18.40;95.00;;;;;;5051888;28;20452;-70
2023/02/15 13:07:53;;;;;;;17.25;14.98;;;18.80;94.40;;;;;;5052911;28;20120;-70
2023/02/15 13:10:25;;;;;;;16.52;14.30;;;18.80;93.30;;;;;;5041846;28;20125;-68
2023/02/15 13:12:54;;;;;;;18.60;14.48;;;19.30;92.80;;;;;;5034035;28;20044;-71
2023/02/15 13:15:25;;;;;;;18.40;15.13;;;19.40;91.40;;;;;;5050394;28;20041;-68
2023/02/15 13:17:54;;;;;;;;;;;19.80;90.30;;;;;;5054628;28;20068;-69
2023/02/15 13:20:23;;;;;;;20.90;15.45;;;19.60;90.20;;;;;;5051127;28;20391;-69
2023/02/15 13:22:56;;;;;;;17.15;14.93;;;19.90;89.40;;;;;;5051548;28;20095;-69
2023/02/15 13:25:30;;;;;;;19.30;15.43;;;19.50;89.80;;;;;;5037800;28;20046;-70
2023/02/15 13:28:03;;;;;;;17.45;15.25;;;19.90;88.50;;;;;;5033220;28;20520;-68
2023/02/15 13:30:35;;;;;;;20.00;15.88;;;20.60;86.30;;;;;;5032519;28;20041;-69
2023/02/15 13:33:26;;;;;;;19.25;15.80;;;20.50;86.50;;;;;;5033568;28;20498;-69
2023/02/15 13:36:09;;;;;;;17.95;14.20;;;21.00;84.40;;;;;;5051338;28;20497;-69
2023/02/15 13:39:10;;;;;;;18.27;16.38;;;22.30;81.80;;;;;;5053345;28;20159;-69
2023/02/15 13:42:04;;;;;;;19.40;16.07;;;21.70;80.50;;;;;;5054064;28;20142;-69